createdAt,value
2019-06-20T00:00:22.307Z,25.10
2019-06-20T00:01:22.335Z,25.06
2019-06-20T00:02:22.265Z,25.06
2019-06-20T00:03:22.258Z,24.96
2019-06-20T00:04:22.254Z,25.03
2019-06-20T00:05:22.230Z,24.98
2019-06-20T00:06:22.242Z,24.99
2019-06-20T00:07:22.244Z,24.96
2019-06-20T00:08:22.226Z,24.95
2019-06-20T00:09:22.188Z,24.90
2019-06-20T00:10:22.182Z,24.85
2019-06-20T00:11:22.218Z,24.77
2019-06-20T00:12:22.168Z,24.77
2019-06-20T00:13:22.155Z,24.76
2019-06-20T00:14:22.135Z,24.73
2019-06-20T00:15:22.126Z,24.68
2019-06-20T00:16:22.147Z,24.68
2019-06-20T00:17:22.100Z,24.69
2019-06-20T00:18:22.092Z,24.71
2019-06-20T00:19:22.089Z,24.69
2019-06-20T00:20:22.087Z,24.65
2019-06-20T00:21:22.155Z,24.78
2019-06-20T00:22:22.277Z,24.80
2019-06-20T00:23:22.055Z,24.71
2019-06-20T00:24:22.039Z,24.64
2019-06-20T00:25:22.047Z,24.73
2019-06-20T00:26:22.034Z,24.77
2019-06-20T00:27:22.024Z,24.78
2019-06-20T00:28:21.986Z,24.76
2019-06-20T00:29:21.981Z,24.77
2019-06-20T00:30:21.995Z,24.73
2019-06-20T00:31:22.142Z,24.68
2019-06-20T00:32:22.022Z,24.67
2019-06-20T00:33:21.942Z,24.64
2019-06-20T00:34:21.949Z,24.62
2019-06-20T00:35:21.921Z,24.61
2019-06-20T00:36:21.924Z,24.65
2019-06-20T00:37:22.110Z,24.58
2019-06-20T00:39:23.056Z,24.73
2019-06-20T00:41:52.910Z,24.68
2019-06-20T00:43:41.945Z,24.64
2019-06-20T00:44:41.953Z,24.71
2019-06-20T00:45:41.907Z,24.69
2019-06-20T00:46:41.923Z,24.68
2019-06-20T00:47:41.907Z,24.81
2019-06-20T00:48:41.905Z,24.80
2019-06-20T00:49:41.880Z,24.81
2019-06-20T00:50:41.870Z,24.76
2019-06-20T00:51:41.847Z,24.77
2019-06-20T00:52:41.858Z,24.81
2019-06-20T00:53:41.830Z,24.68
2019-06-20T00:54:41.819Z,24.85
2019-06-20T00:55:42.382Z,24.84
2019-06-20T00:56:41.818Z,24.84
2019-06-20T00:57:41.791Z,24.83
2019-06-20T00:58:41.770Z,24.80
2019-06-20T00:59:41.767Z,24.77
2019-06-20T01:00:41.759Z,24.76
2019-06-20T01:01:41.780Z,24.67
2019-06-20T01:02:41.757Z,24.68
2019-06-20T01:03:41.729Z,24.64
2019-06-20T01:04:41.718Z,24.71
2019-06-20T01:05:41.699Z,24.81
2019-06-20T01:06:41.702Z,24.78
2019-06-20T01:07:41.700Z,24.65
2019-06-20T01:08:41.664Z,24.65
2019-06-20T01:09:41.694Z,24.53
2019-06-20T01:10:41.644Z,24.60
2019-06-20T01:11:41.646Z,24.47
2019-06-20T01:12:41.620Z,24.53
2019-06-20T01:13:41.614Z,24.12
2019-06-20T01:14:41.600Z,23.70
2019-06-20T01:15:41.595Z,23.46
2019-06-20T01:16:41.626Z,23.22
2019-06-20T01:17:41.579Z,23.02
2019-06-20T01:18:41.558Z,22.88
2019-06-20T01:19:41.591Z,22.64
2019-06-20T01:20:41.536Z,22.39
2019-06-20T01:21:41.556Z,22.27
2019-06-20T01:22:41.542Z,22.20
2019-06-20T01:23:41.509Z,22.02
2019-06-20T01:24:41.494Z,22.00
2019-06-20T01:25:41.488Z,22.00
2019-06-20T01:26:41.501Z,21.96
2019-06-20T01:27:41.487Z,22.10
2019-06-20T01:28:41.453Z,22.07
2019-06-20T01:29:41.448Z,22.06
2019-06-20T01:30:41.434Z,22.05
2019-06-20T01:31:41.428Z,22.00
2019-06-20T01:32:41.420Z,22.02
2019-06-20T01:33:41.429Z,22.09
2019-06-20T01:34:50.422Z,22.00
2019-06-20T01:35:41.371Z,22.10
2019-06-20T01:36:41.402Z,22.02
2019-06-20T01:37:41.353Z,22.02
2019-06-20T01:38:41.370Z,21.98
2019-06-20T01:39:41.881Z,22.00
2019-06-20T01:40:41.326Z,21.88
2019-06-20T01:41:41.340Z,21.90
2019-06-20T01:42:41.366Z,21.83
2019-06-20T01:43:50.465Z,21.82
2019-06-20T01:44:42.280Z,21.75
2019-06-20T01:45:41.269Z,21.69
2019-06-20T01:46:41.278Z,21.71
2019-06-20T01:47:41.256Z,21.75
2019-06-20T01:48:41.246Z,21.71
2019-06-20T01:49:41.230Z,21.72
2019-06-20T01:50:41.217Z,21.72
2019-06-20T01:51:41.233Z,21.69
2019-06-20T01:52:41.284Z,21.65
2019-06-20T01:53:41.186Z,21.62
2019-06-20T01:54:41.180Z,21.67
2019-06-20T01:55:41.170Z,21.62
2019-06-20T01:56:41.175Z,21.54
2019-06-20T01:57:41.152Z,21.56
2019-06-20T01:58:41.130Z,21.53
2019-06-20T01:59:41.119Z,21.49
2019-06-20T02:00:41.117Z,21.42
2019-06-20T02:01:41.124Z,21.37
2019-06-20T02:02:41.088Z,21.40
2019-06-20T02:03:41.082Z,21.40
2019-06-20T02:04:41.064Z,21.31
2019-06-20T02:05:41.063Z,21.29
2019-06-20T02:06:41.086Z,21.24
2019-06-20T02:07:41.045Z,21.32
2019-06-20T02:08:41.032Z,21.22
2019-06-20T02:09:41.019Z,21.21
2019-06-20T02:10:41.006Z,21.24
2019-06-20T02:11:41.008Z,21.13
2019-06-20T02:12:40.983Z,21.13
2019-06-20T02:13:40.968Z,21.16
2019-06-20T02:14:40.974Z,21.14
2019-06-20T02:15:40.985Z,21.17
2019-06-20T02:16:40.963Z,21.13
2019-06-20T02:17:40.934Z,21.16
2019-06-20T02:18:40.915Z,21.10
2019-06-20T02:19:40.941Z,21.12
2019-06-20T02:20:40.904Z,21.19
2019-06-20T02:21:40.959Z,21.12
2019-06-20T02:22:40.875Z,21.13
2019-06-20T02:23:40.864Z,21.19
2019-06-20T02:24:40.860Z,21.10
2019-06-20T02:25:40.856Z,21.13
2019-06-20T02:26:40.864Z,21.16
2019-06-20T02:27:40.838Z,21.13
2019-06-20T02:28:40.818Z,21.22
2019-06-20T02:29:40.822Z,21.09
2019-06-20T02:30:40.791Z,21.14
2019-06-20T02:31:40.819Z,21.10
2019-06-20T02:32:40.770Z,21.10
2019-06-20T02:33:40.758Z,21.09
2019-06-20T02:34:40.757Z,21.07
2019-06-20T02:35:40.747Z,21.07
2019-06-20T02:36:40.766Z,21.01
2019-06-20T02:37:40.718Z,20.99
2019-06-20T02:38:40.728Z,20.94
2019-06-20T02:39:40.690Z,20.91
2019-06-20T02:40:40.692Z,20.95
2019-06-20T02:41:40.726Z,21.01
2019-06-20T02:42:40.671Z,20.94
2019-06-20T02:43:40.653Z,20.95
2019-06-20T02:44:40.651Z,20.89
2019-06-20T02:45:40.635Z,20.95
2019-06-20T02:46:40.640Z,20.94
2019-06-20T02:47:40.606Z,20.94
2019-06-20T02:48:40.600Z,20.92
2019-06-20T02:49:40.598Z,20.92
2019-06-20T02:50:40.577Z,20.97
2019-06-20T02:51:40.597Z,20.97
2019-06-20T02:52:40.567Z,20.92
2019-06-20T02:53:40.544Z,20.94
2019-06-20T02:54:40.535Z,20.92
2019-06-20T02:55:40.527Z,20.92
2019-06-20T02:56:40.552Z,20.94
2019-06-20T02:57:40.503Z,20.87
2019-06-20T02:58:40.494Z,20.97
2019-06-20T02:59:40.481Z,20.94
2019-06-20T03:00:40.475Z,20.95
2019-06-20T03:01:40.491Z,20.94
2019-06-20T03:02:40.502Z,20.97
2019-06-20T03:03:40.442Z,20.92
2019-06-20T03:04:40.439Z,20.89
2019-06-20T03:05:40.421Z,20.97
2019-06-20T03:06:40.572Z,21.07
2019-06-20T03:07:40.402Z,20.94
2019-06-20T03:08:40.381Z,20.95
2019-06-20T03:09:40.375Z,20.99
2019-06-20T03:10:40.389Z,20.94
2019-06-20T03:11:40.385Z,21.09
2019-06-20T03:12:40.348Z,21.04
2019-06-20T03:13:40.330Z,21.01
2019-06-20T03:14:45.519Z,20.98
2019-06-20T03:15:41.314Z,20.94
2019-06-20T03:16:40.330Z,21.01
2019-06-20T03:17:40.297Z,20.91
2019-06-20T03:18:40.287Z,20.92
2019-06-20T03:19:40.268Z,20.87
2019-06-20T03:20:40.262Z,20.89
2019-06-20T03:21:40.266Z,20.92
2019-06-20T03:22:40.250Z,20.98
2019-06-20T03:23:40.224Z,20.98
2019-06-20T03:24:40.214Z,20.88
2019-06-20T03:25:40.204Z,20.91
2019-06-20T03:26:40.213Z,20.99
2019-06-20T03:27:40.196Z,20.94
2019-06-20T03:28:40.228Z,21.06
2019-06-20T03:29:40.166Z,20.97
2019-06-20T03:30:40.188Z,21.03
2019-06-20T03:31:40.191Z,20.94
2019-06-20T03:32:40.128Z,20.91
2019-06-20T03:33:40.127Z,20.92
2019-06-20T03:34:40.136Z,20.97
2019-06-20T03:35:40.104Z,20.98
2019-06-20T03:36:40.144Z,20.97
2019-06-20T03:37:40.103Z,20.97
2019-06-20T03:38:40.073Z,20.97
2019-06-20T03:39:40.060Z,20.97
2019-06-20T03:40:40.109Z,20.98
2019-06-20T03:41:40.085Z,20.99
2019-06-20T03:42:40.021Z,20.98
2019-06-20T03:43:40.010Z,20.94
2019-06-20T03:44:40.009Z,20.98
2019-06-20T03:45:40.001Z,20.91
2019-06-20T03:46:40.013Z,20.95
2019-06-20T03:47:39.972Z,21.03
2019-06-20T03:48:39.960Z,21.01
2019-06-20T03:49:39.946Z,20.97
2019-06-20T03:50:39.958Z,21.07
2019-06-20T03:51:39.962Z,21.04
2019-06-20T03:52:39.916Z,21.09
2019-06-20T03:53:39.909Z,21.06
2019-06-20T03:54:39.998Z,21.01
2019-06-20T03:55:39.884Z,20.94
2019-06-20T03:56:39.904Z,20.91
2019-06-20T03:57:39.906Z,21.03
2019-06-20T03:58:39.870Z,21.13
2019-06-20T03:59:39.852Z,21.17
2019-06-20T04:00:39.837Z,21.09
2019-06-20T04:01:39.827Z,21.16
2019-06-20T04:02:39.806Z,21.22
2019-06-20T04:03:39.844Z,21.22
2019-06-20T04:04:39.790Z,21.28
2019-06-20T04:05:39.771Z,21.32
2019-06-20T04:06:39.823Z,21.29
2019-06-20T04:07:39.759Z,21.42
2019-06-20T04:08:39.754Z,21.43
2019-06-20T04:09:39.733Z,21.40
2019-06-20T04:10:39.726Z,21.56
2019-06-20T04:11:39.772Z,21.47
2019-06-20T04:12:39.699Z,21.61
2019-06-20T04:13:39.693Z,21.61
2019-06-20T04:14:39.673Z,21.59
2019-06-20T04:15:39.666Z,21.61
2019-06-20T04:16:39.699Z,21.74
2019-06-20T04:17:39.649Z,21.71
2019-06-20T04:18:39.657Z,21.90
2019-06-20T04:19:39.634Z,21.82
2019-06-20T04:20:39.612Z,21.80
2019-06-20T04:21:39.693Z,21.84
2019-06-20T04:22:39.590Z,21.86
2019-06-20T04:23:39.580Z,21.88
2019-06-20T04:24:39.568Z,21.91
2019-06-20T04:25:39.558Z,21.96
2019-06-20T04:26:39.897Z,21.96
2019-06-20T04:27:39.592Z,22.05
2019-06-20T04:28:39.532Z,22.06
2019-06-20T04:29:39.563Z,22.06
2019-06-20T04:30:39.511Z,22.03
2019-06-20T04:31:40.020Z,22.15
2019-06-20T04:32:39.487Z,22.09
2019-06-20T04:33:39.478Z,22.15
2019-06-20T04:34:39.463Z,22.18
2019-06-20T04:35:39.456Z,22.17
2019-06-20T04:36:39.505Z,22.14
2019-06-20T04:37:39.424Z,22.21
2019-06-20T04:38:39.420Z,22.17
2019-06-20T04:39:39.420Z,22.10
2019-06-20T04:40:39.431Z,22.14
2019-06-20T04:41:39.429Z,22.10
2019-06-20T04:42:39.420Z,22.18
2019-06-20T04:43:39.370Z,22.10
2019-06-20T04:44:39.356Z,22.10
2019-06-20T04:45:39.343Z,22.27
2019-06-20T04:46:39.382Z,22.21
2019-06-20T04:47:39.324Z,22.20
2019-06-20T04:48:39.337Z,22.21
2019-06-20T04:49:39.312Z,22.07
2019-06-20T04:50:48.534Z,22.28
2019-06-20T04:51:39.411Z,22.31
2019-06-20T04:52:39.295Z,22.39
2019-06-20T04:53:39.269Z,22.61
2019-06-20T04:54:39.266Z,22.90
2019-06-20T04:55:39.276Z,23.27
2019-06-20T04:56:39.261Z,23.53
2019-06-20T04:57:39.269Z,23.66
2019-06-20T04:58:39.216Z,23.68
2019-06-20T04:59:39.198Z,23.70
2019-06-20T05:00:39.186Z,23.66
2019-06-20T05:01:39.202Z,23.72
2019-06-20T05:02:39.481Z,23.72
2019-06-20T05:03:39.157Z,23.73
2019-06-20T05:04:39.138Z,23.79
2019-06-20T05:05:39.133Z,23.68
2019-06-20T05:06:39.148Z,23.83
2019-06-20T05:07:39.121Z,23.93
2019-06-20T05:08:39.117Z,23.94
2019-06-20T05:09:39.141Z,24.03
2019-06-20T05:10:39.100Z,24.10
2019-06-20T05:11:39.082Z,23.95
2019-06-20T05:12:39.071Z,24.02
2019-06-20T05:13:39.054Z,23.97
2019-06-20T05:14:39.093Z,23.91
2019-06-20T05:15:52.147Z,23.85
2019-06-20T05:16:40.054Z,23.97
2019-06-20T05:17:39.013Z,23.85
2019-06-20T05:18:39.022Z,23.83
2019-06-20T05:19:39.055Z,23.80
2019-06-20T05:20:38.979Z,23.80
2019-06-20T05:21:38.998Z,23.84
2019-06-20T05:22:38.963Z,23.84
2019-06-20T05:23:38.948Z,23.76
2019-06-20T05:24:38.931Z,23.75
2019-06-20T05:25:38.938Z,23.72
2019-06-20T05:26:38.936Z,23.70
2019-06-20T05:27:38.942Z,23.58
2019-06-20T05:28:38.908Z,23.66
2019-06-20T05:29:38.889Z,23.60
2019-06-20T05:30:38.897Z,23.50
2019-06-20T05:31:38.876Z,23.55
2019-06-20T05:32:38.846Z,23.54
2019-06-20T05:33:38.854Z,23.54
2019-06-20T05:34:38.822Z,23.53
2019-06-20T05:35:38.818Z,23.66
2019-06-20T05:36:38.822Z,23.66
2019-06-20T05:37:38.792Z,23.61
2019-06-20T05:38:38.794Z,23.76
2019-06-20T05:39:38.767Z,23.80
2019-06-20T05:40:38.765Z,23.73
2019-06-20T05:41:38.770Z,23.68
2019-06-20T05:42:38.739Z,23.78
2019-06-20T05:43:38.729Z,23.78
2019-06-20T05:44:38.715Z,23.76
2019-06-20T05:45:38.712Z,23.76
2019-06-20T05:46:38.720Z,23.73
2019-06-20T05:47:38.689Z,23.69
2019-06-20T05:48:38.711Z,23.80
2019-06-20T05:49:38.665Z,23.80
2019-06-20T05:50:38.657Z,23.83
2019-06-20T05:51:39.797Z,23.88
2019-06-20T05:52:38.634Z,23.79
2019-06-20T05:53:38.638Z,23.76
2019-06-20T05:54:38.631Z,23.91
2019-06-20T05:55:38.599Z,23.94
2019-06-20T05:56:38.619Z,23.78
2019-06-20T05:57:38.596Z,23.79
2019-06-20T05:58:38.577Z,23.79
2019-06-20T05:59:38.577Z,23.76
2019-06-20T06:00:38.562Z,23.69
2019-06-20T06:01:38.611Z,23.68
2019-06-20T06:02:38.531Z,23.66
2019-06-20T06:03:38.530Z,23.48
2019-06-20T06:04:38.511Z,23.28
2019-06-20T06:05:38.515Z,23.22
2019-06-20T06:06:39.054Z,23.10
2019-06-20T06:07:38.487Z,23.01
2019-06-20T06:08:38.482Z,22.97
2019-06-20T06:09:38.480Z,22.94
2019-06-20T06:10:38.464Z,22.80
2019-06-20T06:11:38.475Z,22.77
2019-06-20T06:12:38.423Z,22.79
2019-06-20T06:13:38.448Z,22.68
2019-06-20T06:14:38.408Z,22.65
2019-06-20T06:15:38.390Z,22.68
2019-06-20T06:16:38.394Z,22.64
2019-06-20T06:17:38.714Z,22.60
2019-06-20T06:18:38.352Z,22.60
2019-06-20T06:19:38.345Z,22.57
2019-06-20T06:20:38.336Z,22.45
2019-06-20T06:21:38.364Z,22.30
2019-06-20T06:22:38.345Z,22.15
2019-06-20T06:23:38.300Z,22.07
2019-06-20T06:24:38.291Z,21.72
2019-06-20T06:25:38.285Z,21.53
2019-06-20T06:26:38.285Z,21.29
2019-06-20T06:27:38.268Z,21.09
2019-06-20T06:28:38.269Z,20.98
2019-06-20T06:29:38.349Z,20.64
2019-06-20T06:30:38.230Z,20.28
2019-06-20T06:31:38.233Z,20.01
2019-06-20T06:32:40.484Z,20.02
2019-06-20T06:33:38.202Z,20.01
2019-06-20T06:34:38.204Z,19.94
2019-06-20T06:35:38.203Z,19.77
2019-06-20T06:36:38.223Z,19.74
2019-06-20T06:37:38.161Z,19.63
2019-06-20T06:38:38.150Z,19.59
2019-06-20T06:39:38.131Z,19.68
2019-06-20T06:40:38.144Z,19.59
2019-06-20T06:41:38.140Z,19.58
2019-06-20T06:42:38.099Z,19.56
2019-06-20T06:43:42.041Z,19.56
2019-06-20T06:44:38.079Z,19.61
2019-06-20T06:45:38.101Z,19.63
2019-06-20T06:46:44.182Z,19.65
2019-06-20T06:47:39.046Z,19.68
2019-06-20T06:48:38.050Z,19.69
2019-06-20T06:49:38.030Z,19.69
2019-06-20T06:50:38.030Z,19.68
2019-06-20T06:51:38.350Z,19.73
2019-06-20T06:52:37.993Z,19.71
2019-06-20T06:53:38.000Z,19.73
2019-06-20T06:54:38.038Z,19.71
2019-06-20T06:55:38.048Z,19.56
2019-06-20T06:56:40.137Z,19.69
2019-06-20T06:57:38.031Z,19.61
2019-06-20T06:58:38.001Z,19.66
2019-06-20T06:59:37.918Z,19.76
2019-06-20T07:00:37.903Z,19.68
2019-06-20T07:01:37.956Z,19.76
2019-06-20T07:02:37.983Z,19.77
2019-06-20T07:03:39.942Z,19.76
2019-06-20T07:04:37.898Z,19.81
2019-06-20T07:05:37.908Z,19.84
2019-06-20T07:06:38.173Z,19.84
2019-06-20T07:07:37.923Z,19.86
2019-06-20T07:08:37.845Z,19.84
2019-06-20T07:09:37.839Z,19.83
2019-06-20T07:10:37.806Z,19.94
2019-06-20T07:11:37.828Z,20.01
2019-06-20T07:12:37.788Z,20.01
2019-06-20T07:13:37.818Z,20.10
2019-06-20T07:14:37.820Z,20.13
2019-06-20T07:15:37.797Z,20.20
2019-06-20T07:16:37.903Z,20.21
2019-06-20T07:17:37.729Z,20.39
2019-06-20T07:18:37.739Z,20.38
2019-06-20T07:19:37.728Z,20.48
2019-06-20T07:20:37.818Z,20.48
2019-06-20T07:21:37.790Z,20.50
2019-06-20T07:22:37.736Z,20.54
2019-06-20T07:23:37.733Z,20.54
2019-06-20T07:24:37.650Z,20.66
2019-06-20T07:26:18.314Z,20.57
2019-06-20T07:28:38.881Z,20.55
2019-06-20T07:29:37.615Z,20.51
2019-06-20T07:30:37.652Z,20.55
2019-06-20T07:31:37.633Z,20.52
2019-06-20T07:32:37.563Z,20.55
2019-06-20T07:33:37.566Z,20.51
2019-06-20T07:34:37.599Z,20.62
2019-06-20T07:35:41.642Z,20.58
2019-06-20T07:36:37.726Z,20.61
2019-06-20T07:37:37.572Z,20.58
2019-06-20T07:38:37.576Z,20.64
2019-06-20T07:39:37.487Z,20.70
2019-06-20T07:40:37.494Z,20.73
2019-06-20T07:41:37.494Z,20.77
2019-06-20T07:42:37.515Z,20.79
2019-06-20T07:43:37.526Z,20.88
2019-06-20T07:45:38.619Z,20.92
2019-06-20T07:46:37.479Z,21.04
2019-06-20T07:47:37.525Z,21.16
2019-06-20T07:48:37.453Z,21.21
2019-06-20T07:49:37.458Z,21.19
2019-06-20T07:50:39.408Z,21.22
2019-06-20T07:51:41.251Z,21.31
2019-06-20T07:54:38.508Z,21.44
2019-06-20T07:55:37.340Z,21.43
2019-06-20T07:56:37.423Z,21.52
2019-06-20T07:57:37.321Z,21.61
2019-06-20T07:58:37.337Z,21.65
2019-06-20T07:59:39.334Z,21.61
2019-06-20T08:00:37.348Z,21.72
2019-06-20T08:01:37.423Z,21.82
2019-06-20T08:02:39.373Z,21.79
2019-06-20T08:03:37.300Z,21.82
2019-06-20T08:04:39.293Z,21.83
2019-06-20T08:05:37.266Z,21.86
2019-06-20T08:06:37.335Z,21.94
2019-06-20T08:07:37.194Z,21.94
2019-06-20T08:08:37.186Z,21.84
2019-06-20T08:09:44.859Z,21.83
2019-06-20T08:10:38.181Z,21.96
2019-06-20T08:11:37.342Z,22.09
2019-06-20T08:12:37.194Z,22.06
2019-06-20T08:13:37.174Z,22.07
2019-06-20T08:14:37.175Z,22.09
2019-06-20T08:15:37.147Z,22.06
2019-06-20T08:16:37.131Z,22.05
2019-06-20T08:17:37.141Z,21.94
2019-06-20T08:18:37.101Z,22.03
2019-06-20T08:19:37.107Z,22.02
2019-06-20T08:20:37.109Z,22.10
2019-06-20T08:21:37.115Z,22.00
2019-06-20T08:22:37.084Z,22.15
2019-06-20T08:23:37.231Z,22.09
2019-06-20T08:24:37.042Z,22.09
2019-06-20T08:25:37.059Z,22.09
2019-06-20T08:26:37.101Z,22.05
2019-06-20T08:27:37.001Z,22.10
2019-06-20T08:28:37.008Z,22.33
2019-06-20T08:29:37.019Z,22.40
2019-06-20T08:30:36.978Z,22.40
2019-06-20T08:31:37.095Z,22.47
2019-06-20T08:32:37.000Z,22.46
2019-06-20T08:33:36.990Z,22.49
2019-06-20T08:34:36.937Z,22.49
2019-06-20T08:35:37.050Z,22.47
2019-06-20T08:36:36.930Z,22.46
2019-06-20T08:37:36.925Z,22.35
2019-06-20T08:38:36.863Z,22.37
2019-06-20T08:39:36.934Z,22.46
2019-06-20T08:40:36.988Z,22.42
2019-06-20T08:41:36.987Z,22.43
2019-06-20T08:42:36.819Z,22.57
2019-06-20T08:43:36.825Z,22.70
2019-06-20T08:44:36.822Z,22.80
2019-06-20T08:45:36.921Z,22.85
2019-06-20T08:46:36.925Z,23.00
2019-06-20T08:47:36.786Z,23.09
2019-06-20T08:48:36.755Z,23.10
2019-06-20T08:49:36.745Z,23.10
2019-06-20T08:50:36.808Z,23.09
2019-06-20T08:51:36.909Z,23.31
2019-06-20T08:52:36.777Z,23.43
2019-06-20T08:53:36.766Z,23.51
2019-06-20T08:54:36.709Z,23.65
2019-06-20T08:55:36.830Z,23.84
2019-06-20T08:56:36.856Z,23.88
2019-06-20T08:58:37.936Z,24.13
2019-06-20T08:59:36.679Z,24.15
2019-06-20T09:00:37.026Z,24.15
2019-06-20T09:01:36.780Z,24.03
2019-06-20T09:02:36.719Z,23.93
2019-06-20T09:03:36.615Z,23.83
2019-06-20T09:04:36.656Z,23.73
2019-06-20T09:05:36.660Z,23.80
2019-06-20T09:06:36.614Z,23.72
2019-06-20T09:07:36.568Z,23.68
2019-06-20T09:08:36.633Z,23.72
2019-06-20T09:09:36.535Z,23.63
2019-06-20T09:10:36.541Z,23.55
2019-06-20T09:11:36.539Z,23.54
2019-06-20T09:12:36.514Z,23.50
2019-06-20T09:13:36.485Z,23.48
2019-06-20T09:14:36.479Z,23.39
2019-06-20T09:15:36.488Z,23.35
2019-06-20T09:16:36.560Z,23.28
2019-06-20T09:17:36.443Z,23.05
2019-06-20T09:18:36.432Z,23.01
2019-06-20T09:19:36.429Z,22.92
2019-06-20T09:20:36.419Z,22.88
2019-06-20T09:21:36.427Z,22.77
2019-06-20T09:22:36.418Z,22.88
2019-06-20T09:23:36.421Z,22.97
2019-06-20T09:24:36.369Z,23.09
2019-06-20T09:25:36.378Z,23.25
2019-06-20T09:26:36.379Z,23.38
2019-06-20T09:27:36.361Z,23.55
2019-06-20T09:28:36.332Z,23.76
2019-06-20T09:29:41.739Z,24.02
2019-06-20T09:30:37.310Z,24.20
2019-06-20T09:31:36.326Z,24.28
2019-06-20T09:32:36.290Z,24.42
2019-06-20T09:33:36.280Z,24.60
2019-06-20T09:34:36.296Z,24.65
2019-06-20T09:35:36.253Z,24.57
2019-06-20T09:36:36.269Z,24.47
2019-06-20T09:37:36.240Z,24.53
2019-06-20T09:38:36.227Z,24.61
2019-06-20T09:39:36.234Z,24.50
2019-06-20T09:40:36.267Z,24.49
2019-06-20T09:41:36.227Z,24.45
2019-06-20T09:42:36.886Z,24.42
2019-06-20T09:43:36.186Z,24.30
2019-06-20T09:44:36.169Z,24.34
2019-06-20T09:45:36.172Z,24.37
2019-06-20T09:46:36.178Z,24.27
2019-06-20T09:47:36.141Z,24.35
2019-06-20T09:48:36.224Z,24.45
2019-06-20T09:49:36.144Z,24.50
2019-06-20T09:50:36.108Z,24.55
2019-06-20T09:51:36.128Z,24.61
2019-06-20T09:52:36.120Z,24.78
2019-06-20T09:53:36.079Z,24.91
2019-06-20T09:54:36.077Z,24.80
2019-06-20T09:55:36.059Z,24.61
2019-06-20T09:56:36.071Z,24.40
2019-06-20T09:57:36.047Z,24.35
2019-06-20T09:58:36.014Z,24.49
2019-06-20T09:59:36.007Z,24.47
2019-06-20T10:00:35.999Z,24.55
2019-06-20T10:01:36.013Z,24.67
2019-06-20T10:02:36.012Z,24.95
2019-06-20T10:03:35.968Z,25.08
2019-06-20T10:04:35.959Z,25.18
2019-06-20T10:05:35.943Z,25.28
2019-06-20T10:06:35.962Z,25.15
2019-06-20T10:07:35.928Z,25.09
2019-06-20T10:08:35.921Z,25.02
2019-06-20T10:09:35.908Z,25.05
2019-06-20T10:10:35.942Z,25.03
2019-06-20T10:11:35.952Z,24.91
2019-06-20T10:12:35.868Z,24.98
2019-06-20T10:13:35.880Z,24.98
2019-06-20T10:14:35.859Z,24.85
2019-06-20T10:15:35.867Z,24.96
2019-06-20T10:16:45.349Z,25.09
2019-06-20T10:17:36.823Z,25.02
2019-06-20T10:18:35.810Z,24.83
2019-06-20T10:19:35.805Z,24.96
2019-06-20T10:20:38.684Z,24.99
2019-06-20T10:21:35.794Z,24.88
2019-06-20T10:22:35.790Z,24.88
2019-06-20T10:23:35.797Z,24.83
2019-06-20T10:24:35.758Z,24.73
2019-06-20T10:25:35.763Z,24.95
2019-06-20T10:26:37.775Z,24.99
2019-06-20T10:27:35.716Z,24.91
2019-06-20T10:28:35.704Z,24.85
2019-06-20T10:29:35.698Z,24.87
2019-06-20T10:30:35.678Z,24.78
2019-06-20T10:31:35.739Z,24.77
2019-06-20T10:32:35.666Z,24.76
2019-06-20T10:33:35.657Z,24.69
2019-06-20T10:34:35.667Z,24.83
2019-06-20T10:35:35.676Z,24.84
2019-06-20T10:36:35.719Z,24.91
2019-06-20T10:37:35.617Z,25.08
2019-06-20T10:38:35.613Z,25.02
2019-06-20T10:39:35.597Z,24.96
2019-06-20T10:40:35.570Z,25.06
2019-06-20T10:41:35.656Z,25.15
2019-06-20T10:42:35.598Z,25.09
2019-06-20T10:43:35.570Z,25.15
2019-06-20T10:44:35.579Z,25.21
2019-06-20T10:45:35.524Z,25.08
2019-06-20T10:46:35.584Z,25.18
2019-06-20T10:47:36.149Z,25.24
2019-06-20T10:48:35.501Z,25.27
2019-06-20T10:49:35.492Z,25.57
2019-06-20T10:50:35.479Z,25.67
2019-06-20T10:51:35.508Z,25.90
2019-06-20T10:52:35.481Z,25.90
2019-06-20T10:53:35.491Z,26.12
2019-06-20T10:54:35.481Z,26.30
2019-06-20T10:55:35.480Z,26.43
2019-06-20T10:56:35.540Z,26.43
2019-06-20T10:57:35.451Z,26.32
2019-06-20T10:58:35.418Z,26.17
2019-06-20T10:59:35.412Z,25.97
2019-06-20T11:00:35.382Z,26.17
2019-06-20T11:01:35.411Z,26.10
2019-06-20T11:02:35.359Z,26.30
2019-06-20T11:03:35.379Z,26.48
2019-06-20T11:04:35.338Z,26.69
2019-06-20T11:05:35.334Z,26.97
2019-06-20T11:06:35.354Z,27.13
2019-06-20T11:07:35.301Z,27.13
2019-06-20T11:08:35.302Z,27.18
2019-06-20T11:09:35.295Z,27.24
2019-06-20T11:10:35.279Z,27.41
2019-06-20T11:11:35.309Z,27.63
2019-06-20T11:12:45.791Z,27.47
2019-06-20T11:13:36.244Z,27.66
2019-06-20T11:14:35.247Z,27.51
2019-06-20T11:15:35.236Z,27.63
2019-06-20T11:16:35.274Z,27.84
2019-06-20T11:17:35.230Z,28.22
2019-06-20T11:18:35.200Z,28.70
2019-06-20T11:19:35.195Z,28.73
2019-06-20T11:20:35.172Z,28.89
2019-06-20T11:21:35.246Z,28.83
2019-06-20T11:22:35.166Z,28.90
2019-06-20T11:23:35.149Z,28.58
2019-06-20T11:24:37.436Z,28.73
2019-06-20T11:25:35.140Z,28.85
2019-06-20T11:26:35.154Z,29.11
2019-06-20T11:27:37.079Z,28.96
2019-06-20T11:28:35.094Z,29.00
2019-06-20T11:29:35.086Z,29.15
2019-06-20T11:30:48.124Z,29.51
2019-06-20T11:31:37.505Z,29.57
2019-06-20T11:32:36.599Z,29.53
2019-06-20T11:33:36.501Z,29.67
2019-06-20T11:34:35.042Z,29.73
2019-06-20T11:35:36.141Z,29.76
2019-06-20T11:36:36.982Z,29.80
2019-06-20T11:37:36.027Z,29.97
2019-06-20T11:38:35.018Z,29.70
2019-06-20T11:39:36.141Z,29.28
2019-06-20T11:40:36.323Z,28.93
2019-06-20T11:41:36.442Z,28.64
2019-06-20T11:42:36.077Z,28.61
2019-06-20T11:43:36.236Z,28.41
2019-06-20T11:44:35.889Z,28.71
2019-06-20T11:45:36.050Z,28.66
2019-06-20T11:46:35.888Z,28.73
2019-06-20T11:47:36.303Z,28.55
2019-06-20T11:48:35.646Z,28.52
2019-06-20T11:49:36.353Z,28.66
2019-06-20T11:50:36.166Z,28.78
2019-06-20T11:51:35.957Z,28.81
2019-06-20T11:52:40.048Z,28.67
2019-06-20T11:53:36.555Z,28.27
2019-06-20T11:54:35.948Z,28.15
2019-06-20T11:55:34.840Z,28.25
2019-06-20T11:56:34.878Z,28.06
2019-06-20T11:57:34.817Z,27.93
2019-06-20T11:58:34.825Z,27.93
2019-06-20T11:59:34.798Z,27.94
2019-06-20T12:00:34.805Z,28.06
2019-06-20T12:01:34.843Z,28.17
2019-06-20T12:02:34.787Z,28.22
2019-06-20T12:03:34.775Z,28.24
2019-06-20T12:04:34.760Z,28.25
2019-06-20T12:05:34.773Z,28.31
2019-06-20T12:06:34.766Z,28.27
2019-06-20T12:07:34.738Z,27.90
2019-06-20T12:08:34.706Z,27.59
2019-06-20T12:09:36.534Z,27.39
2019-06-20T12:10:34.710Z,27.27
2019-06-20T12:11:34.707Z,27.28
2019-06-20T12:12:34.667Z,27.44
2019-06-20T12:13:34.662Z,27.74
2019-06-20T12:14:34.647Z,27.85
2019-06-20T12:15:34.634Z,28.25
2019-06-20T12:16:34.652Z,28.66
2019-06-20T12:17:34.648Z,29.24
2019-06-20T12:18:34.628Z,29.90
2019-06-20T12:19:34.595Z,30.47
2019-06-20T12:20:34.646Z,30.57
2019-06-20T12:21:34.592Z,31.17
2019-06-20T12:22:34.578Z,31.53
2019-06-20T12:23:34.558Z,31.68
2019-06-20T12:24:34.546Z,31.65
2019-06-20T12:25:34.535Z,31.70
2019-06-20T12:26:34.575Z,31.31
2019-06-20T12:27:34.517Z,31.41
2019-06-20T12:28:34.516Z,31.07
2019-06-20T12:29:34.514Z,30.98
2019-06-20T12:30:34.498Z,30.60
2019-06-20T12:31:34.503Z,30.46
2019-06-20T12:32:34.473Z,30.13
2019-06-20T12:33:34.454Z,29.89
2019-06-20T12:34:34.462Z,29.71
2019-06-20T12:35:34.474Z,29.70
2019-06-20T12:36:34.474Z,29.71
2019-06-20T12:37:34.459Z,29.92
2019-06-20T12:38:34.483Z,30.20
2019-06-20T12:39:34.403Z,30.29
2019-06-20T12:40:34.402Z,30.31
2019-06-20T12:41:34.519Z,30.37
2019-06-20T12:42:34.470Z,30.35
2019-06-20T12:43:34.442Z,30.31
2019-06-20T12:44:34.393Z,30.20
2019-06-20T12:45:34.357Z,30.23
2019-06-20T12:46:34.390Z,30.39
2019-06-20T12:47:40.172Z,30.77
2019-06-20T12:48:34.344Z,31.02
2019-06-20T12:49:34.315Z,31.23
2019-06-20T12:50:34.315Z,31.46
2019-06-20T12:51:34.314Z,31.99
2019-06-20T12:52:34.276Z,32.21
2019-06-20T12:53:34.280Z,32.55
2019-06-20T12:54:34.289Z,32.78
2019-06-20T12:55:34.259Z,33.34
2019-06-20T12:56:34.296Z,33.90
2019-06-20T12:57:34.234Z,34.09
2019-06-20T12:58:34.219Z,33.66
2019-06-20T12:59:34.218Z,34.02
2019-06-20T13:00:34.233Z,33.71
2019-06-20T13:01:38.200Z,32.84